sensor_id;sensor_type;location;lat;lon;timestamp;pressure;altitude;pressure_sealevel;temperature;humidity
56600;BME280;51832;48.152;11.530;2023-04-22T00:04:27;94945.91;;;17.19;45.48
56600;BME280;51832;48.152;11.530;2023-04-22T00:09:29;94942.53;;;17.03;45.85
56600;BME280;51832;48.152;11.530;2023-04-22T00:14:29;94932.72;;;17.04;46.03
56600;BME280;51832;48.152;11.530;2023-04-22T00:19:29;94932.13;;;17.12;46.16
56600;BME280;51832;48.152;11.530;2023-04-22T00:24:30;94928.41;;;17.13;45.95
56600;BME280;51832;48.152;11.530;2023-04-22T00:29:30;94929.44;;;17.17;45.61
56600;BME280;51832;48.152;11.530;2023-04-22T00:34:31;94928.91;;;17.15;46.34
56600;BME280;51832;48.152;11.530;2023-04-22T00:39:31;94936.66;;;17.12;46.80
56600;BME280;51832;48.152;11.530;2023-04-22T00:44:32;94927.59;;;17.13;46.18
56600;BME280;51832;48.152;11.530;2023-04-22T00:49:34;94922.81;;;17.15;46.79
56600;BME280;51832;48.152;11.530;2023-04-22T00:54:34;94925.97;;;17.22;47.04
56600;BME280;51832;48.152;11.530;2023-04-22T00:59:35;94929.72;;;17.16;47.79
56600;BME280;51832;48.152;11.530;2023-04-22T01:04:36;94927.59;;;17.13;47.71
56600;BME280;51832;48.152;11.530;2023-04-22T01:09:37;94928.66;;;17.12;48.20
56600;BME280;51832;48.152;11.530;2023-04-22T01:14:39;94934.84;;;17.02;48.77
56600;BME280;51832;48.152;11.530;2023-04-22T01:19:40;94930.06;;;17.04;48.74
56600;BME280;51832;48.152;11.530;2023-04-22T01:24:41;94929.44;;;17.17;48.75
56600;BME280;51832;48.152;11.530;2023-04-22T01:29:41;94930.72;;;17.25;48.52
56600;BME280;51832;48.152;11.530;2023-04-22T01:34:42;94935.50;;;17.23;48.15
56600;BME280;51832;48.152;11.530;2023-04-22T01:39:43;94935.84;;;17.16;48.85
56600;BME280;51832;48.152;11.530;2023-04-22T01:44:43;94940.63;;;17.14;48.84
56600;BME280;51832;48.152;11.530;2023-04-22T01:49:43;94934.53;;;17.09;49.13
56600;BME280;51832;48.152;11.530;2023-04-22T01:54:44;94930.06;;;16.99;49.31
56600;BME280;51832;48.152;11.530;2023-04-22T01:59:44;94938.56;;;17.01;49.81
56600;BME280;51832;48.152;11.530;2023-04-22T02:04:45;94937.03;;;16.90;49.58
56600;BME280;51832;48.152;11.530;2023-04-22T02:09:45;94934.53;;;16.44;50.66
56600;BME280;51832;48.152;11.530;2023-04-22T02:14:45;94937.69;;;16.51;50.63
56600;BME280;51832;48.152;11.530;2023-04-22T02:19:46;94944.69;;;16.22;51.19
56600;BME280;51832;48.152;11.530;2023-04-22T02:24:46;94941.00;;;16.08;51.23
56600;BME280;51832;48.152;11.530;2023-04-22T02:29:47;94939.66;;;16.05;50.87
56600;BME280;51832;48.152;11.530;2023-04-22T02:34:47;94938.59;;;15.86;51.52
56600;BME280;51832;48.152;11.530;2023-04-22T02:39:48;94940.72;;;15.48;53.12
56600;BME280;51832;48.152;11.530;2023-04-22T02:44:48;94936.75;;;15.51;53.04
56600;BME280;51832;48.152;11.530;2023-04-22T02:49:49;94932.22;;;15.46;53.19
56600;BME280;51832;48.152;11.530;2023-04-22T02:54:49;94940.72;;;15.43;53.33
56600;BME280;51832;48.152;11.530;2023-04-22T02:59:50;94935.09;;;14.99;54.45
56600;BME280;51832;48.152;11.530;2023-04-22T03:04:50;94920.00;;;15.10;53.63
56600;BME280;51832;48.152;11.530;2023-04-22T03:09:53;94921.34;;;15.27;53.31
56600;BME280;51832;48.152;11.530;2023-04-22T03:14:55;94921.06;;;15.24;53.44
56600;BME280;51832;48.152;11.530;2023-04-22T03:19:55;94928.22;;;15.23;53.18
56600;BME280;51832;48.152;11.530;2023-04-22T03:24:55;94917.66;;;15.39;53.32
56600;BME280;51832;48.152;11.530;2023-04-22T03:29:56;94916.34;;;15.41;52.53
56600;BME280;51832;48.152;11.530;2023-04-22T03:34:56;94910.50;;;15.29;52.87
56600;BME280;51832;48.152;11.530;2023-04-22T03:39:57;94913.00;;;14.68;54.90
56600;BME280;51832;48.152;11.530;2023-04-22T03:44:57;94924.38;;;14.58;55.38
56600;BME280;51832;48.152;11.530;2023-04-22T03:49:58;94936.13;;;14.31;54.97
56600;BME280;51832;48.152;11.530;2023-04-22T03:54:58;94933.28;;;14.42;54.28
56600;BME280;51832;48.152;11.530;2023-04-22T04:00:00;94933.44;;;14.26;55.68
56600;BME280;51832;48.152;11.530;2023-04-22T04:05:00;94930.69;;;14.52;54.33
56600;BME280;51832;48.152;11.530;2023-04-22T04:10:01;94921.09;;;14.41;54.59
56600;BME280;51832;48.152;11.530;2023-04-22T04:15:01;94922.75;;;14.57;54.01
56600;BME280;51832;48.152;11.530;2023-04-22T04:20:02;94936.03;;;14.68;53.89
56600;BME280;51832;48.152;11.530;2023-04-22T04:25:03;94933.66;;;14.61;54.00
56600;BME280;51832;48.152;11.530;2023-04-22T04:30:04;94924.66;;;14.67;54.02
56600;BME280;51832;48.152;11.530;2023-04-22T04:35:05;94922.31;;;14.81;52.70
56600;BME280;51832;48.152;11.530;2023-04-22T04:40:06;94915.84;;;14.51;54.15
56600;BME280;51832;48.152;11.530;2023-04-22T04:45:07;94929.22;;;14.92;52.95
56600;BME280;51832;48.152;11.530;2023-04-22T04:50:08;94928.47;;;15.07;52.77
56600;BME280;51832;48.152;11.530;2023-04-22T04:55:09;94942.19;;;14.83;52.58
56600;BME280;51832;48.152;11.530;2023-04-22T05:00:10;94933.97;;;14.90;51.42
56600;BME280;51832;48.152;11.530;2023-04-22T05:05:10;94936.16;;;15.08;50.64
56600;BME280;51832;48.152;11.530;2023-04-22T05:10:11;94929.47;;;14.90;50.09
56600;BME280;51832;48.152;11.530;2023-04-22T05:15:13;94927.66;;;15.01;48.83
56600;BME280;51832;48.152;11.530;2023-04-22T05:20:13;94939.69;;;15.59;47.83
56600;BME280;51832;48.152;11.530;2023-04-22T05:25:14;94925.09;;;15.87;47.07
56600;BME280;51832;48.152;11.530;2023-04-22T05:30:15;94927.38;;;16.40;46.36
56600;BME280;51832;48.152;11.530;2023-04-22T05:35:15;94926.72;;;16.78;45.21
56600;BME280;51832;48.152;11.530;2023-04-22T05:40:15;94934.47;;;16.69;44.29
56600;BME280;51832;48.152;11.530;2023-04-22T05:45:16;94943.41;;;16.89;43.58
56600;BME280;51832;48.152;11.530;2023-04-22T05:50:16;94948.72;;;16.94;43.03
56600;BME280;51832;48.152;11.530;2023-04-22T05:55:17;94950.91;;;17.26;42.52
56600;BME280;51832;48.152;11.530;2023-04-22T06:00:18;94960.41;;;17.42;42.38
56600;BME280;51832;48.152;11.530;2023-04-22T06:05:18;94969.34;;;17.56;41.76
56600;BME280;51832;48.152;11.530;2023-04-22T06:10:18;94971.91;;;17.32;40.79
56600;BME280;51832;48.152;11.530;2023-04-22T06:15:19;94985.31;;;17.56;40.43
56600;BME280;51832;48.152;11.530;2023-04-22T06:20:20;94979.88;;;18.05;39.98
56600;BME280;51832;48.152;11.530;2023-04-22T06:25:20;94975.69;;;18.57;39.44
56600;BME280;51832;48.152;11.530;2023-04-22T06:30:21;94973.69;;;18.44;38.43
56600;BME280;51832;48.152;11.530;2023-04-22T06:35:21;94982.75;;;18.72;37.70
56600;BME280;51832;48.152;11.530;2023-04-22T06:40:22;94981.84;;;18.81;37.72
56600;BME280;51832;48.152;11.530;2023-04-22T06:45:22;94976.88;;;19.36;36.86
56600;BME280;51832;48.152;11.530;2023-04-22T06:50:23;94985.69;;;19.74;35.85
56600;BME280;51832;48.152;11.530;2023-04-22T06:55:24;94981.47;;;19.87;35.58
56600;BME280;51832;48.152;11.530;2023-04-22T07:00:24;94980.06;;;20.41;35.10
56600;BME280;51832;48.152;11.530;2023-04-22T07:05:25;94984.75;;;20.49;33.50
56600;BME280;51832;48.152;11.530;2023-04-22T07:10:25;94980.13;;;20.82;33.32
56600;BME280;51832;48.152;11.530;2023-04-22T07:15:26;94971.22;;;20.86;32.68
56600;BME280;51832;48.152;11.530;2023-04-22T07:20:26;94971.75;;;21.38;31.14
56600;BME280;51832;48.152;11.530;2023-04-22T07:25:27;94967.13;;;21.16;32.21
56600;BME280;51832;48.152;11.530;2023-04-22T07:30:27;94958.78;;;21.90;31.17
56600;BME280;51832;48.152;11.530;2023-04-22T07:35:27;94959.28;;;21.92;30.53
56600;BME280;51832;48.152;11.530;2023-04-22T07:40:28;94956.16;;;22.12;30.50
56600;BME280;51832;48.152;11.530;2023-04-22T07:45:29;94959.41;;;22.71;29.20
56600;BME280;51832;48.152;11.530;2023-04-22T07:50:30;94965.41;;;22.06;30.18
56600;BME280;51832;48.152;11.530;2023-04-22T07:55:30;94969.06;;;22.10;30.63
56600;BME280;51832;48.152;11.530;2023-04-22T08:00:34;94958.78;;;23.05;28.78
56600;BME280;51832;48.152;11.530;2023-04-22T08:05:34;94964.81;;;23.28;28.38
56600;BME280;51832;48.152;11.530;2023-04-22T08:10:35;94964.00;;;22.70;29.72
56600;BME280;51832;48.152;11.530;2023-04-22T08:15:35;94966.22;;;22.68;29.42
56600;BME280;51832;48.152;11.530;2023-04-22T08:20:36;94965.44;;;23.08;28.71
56600;BME280;51832;48.152;11.530;2023-04-22T08:25:36;94960.31;;;22.97;28.17
56600;BME280;51832;48.152;11.530;2023-04-22T08:30:36;94969.13;;;22.81;28.33
56600;BME280;51832;48.152;11.530;2023-04-22T08:35:37;94970.34;;;22.44;29.49
56600;BME280;51832;48.152;11.530;2023-04-22T08:40:41;94963.84;;;23.07;28.67
56600;BME280;51832;48.152;11.530;2023-04-22T08:45:42;94962.44;;;23.09;27.19
56600;BME280;51832;48.152;11.530;2023-04-22T08:50:46;94968.75;;;23.13;26.70
56600;BME280;51832;48.152;11.530;2023-04-22T08:55:48;94966.53;;;23.15;26.02
56600;BME280;51832;48.152;11.530;2023-04-22T09:00:49;94951.25;;;23.33;25.38
56600;BME280;51832;48.152;11.530;2023-04-22T09:05:50;94952.91;;;23.77;25.21
56600;BME280;51832;48.152;11.530;2023-04-22T09:10:51;94953.69;;;23.78;24.47
56600;BME280;51832;48.152;11.530;2023-04-22T09:15:52;94942.44;;;24.01;24.75
56600;BME280;51832;48.152;11.530;2023-04-22T09:20:54;94950.19;;;23.94;25.73
56600;BME280;51832;48.152;11.530;2023-04-22T09:25:56;94943.09;;;24.62;25.70
56600;BME280;51832;48.152;11.530;2023-04-22T09:30:59;94936.25;;;24.09;26.20
56600;BME280;51832;48.152;11.530;2023-04-22T09:36:07;94947.38;;;23.91;26.15
56600;BME280;51832;48.152;11.530;2023-04-22T09:41:09;94937.69;;;23.47;27.51
56600;BME280;51832;48.152;11.530;2023-04-22T09:46:11;94940.72;;;23.62;27.59
56600;BME280;51832;48.152;11.530;2023-04-22T09:56:18;94927.22;;;24.05;26.16
56600;BME280;51832;48.152;11.530;2023-04-22T10:01:19;94916.78;;;24.30;25.25
56600;BME280;51832;48.152;11.530;2023-04-22T10:06:19;94920.66;;;23.77;26.42
56600;BME280;51832;48.152;11.530;2023-04-22T10:11:20;94916.72;;;24.47;24.30
56600;BME280;51832;48.152;11.530;2023-04-22T10:16:22;94919.44;;;24.38;24.26
56600;BME280;51832;48.152;11.530;2023-04-22T10:21:24;94906.03;;;25.06;24.40
56600;BME280;51832;48.152;11.530;2023-04-22T10:26:39;94903.84;;;24.61;26.88
56600;BME280;51832;48.152;11.530;2023-04-22T10:31:44;94903.88;;;23.80;28.46
56600;BME280;51832;48.152;11.530;2023-04-22T10:36:58;94905.47;;;23.81;28.75
56600;BME280;51832;48.152;11.530;2023-04-22T10:47:03;94894.09;;;23.84;28.28
56600;BME280;51832;48.152;11.530;2023-04-22T10:52:05;94889.53;;;24.40;28.25
56600;BME280;51832;48.152;11.530;2023-04-22T10:57:10;94882.06;;;25.34;27.52
56600;BME280;51832;48.152;11.530;2023-04-22T11:02:12;94886.34;;;25.35;26.47
56600;BME280;51832;48.152;11.530;2023-04-22T11:17:39;94870.19;;;25.76;25.53
56600;BME280;51832;48.152;11.530;2023-04-22T11:22:42;94869.66;;;25.83;24.23
56600;BME280;51832;48.152;11.530;2023-04-22T11:27:45;94867.41;;;26.30;23.68
56600;BME280;51832;48.152;11.530;2023-04-22T11:32:50;94867.59;;;26.25;23.22
56600;BME280;51832;48.152;11.530;2023-04-22T11:37:54;94877.34;;;26.75;21.95
56600;BME280;51832;48.152;11.530;2023-04-22T11:42:57;94870.13;;;26.67;22.87
56600;BME280;51832;48.152;11.530;2023-04-22T11:47:58;94867.91;;;27.57;21.71
56600;BME280;51832;48.152;11.530;2023-04-22T11:53:00;94867.56;;;27.59;21.62
56600;BME280;51832;48.152;11.530;2023-04-22T12:03:06;94860.13;;;26.92;23.21
56600;BME280;51832;48.152;11.530;2023-04-22T12:08:36;94859.00;;;26.44;23.79
56600;BME280;51832;48.152;11.530;2023-04-22T12:13:39;94849.31;;;27.16;22.47
56600;BME280;51832;48.152;11.530;2023-04-22T12:18:48;94858.69;;;26.94;23.43
56600;BME280;51832;48.152;11.530;2023-04-22T12:23:51;94850.00;;;26.88;23.61
56600;BME280;51832;48.152;11.530;2023-04-22T12:28:52;94852.38;;;26.66;23.84
56600;BME280;51832;48.152;11.530;2023-04-22T12:33:54;94854.00;;;28.15;21.13
56600;BME280;51832;48.152;11.530;2023-04-22T12:38:55;94855.63;;;26.96;22.99
56600;BME280;51832;48.152;11.530;2023-04-22T12:43:55;94845.38;;;27.13;22.91
56600;BME280;51832;48.152;11.530;2023-04-22T12:48:55;94851.16;;;27.80;21.97
56600;BME280;51832;48.152;11.530;2023-04-22T12:53:56;94840.59;;;27.90;21.83
56600;BME280;51832;48.152;11.530;2023-04-22T12:58:57;94834.25;;;28.42;21.71
56600;BME280;51832;48.152;11.530;2023-04-22T13:04:02;94830.22;;;28.52;22.12
56600;BME280;51832;48.152;11.530;2023-04-22T13:09:02;94832.59;;;27.38;23.01
56600;BME280;51832;48.152;11.530;2023-04-22T13:14:03;94816.03;;;26.87;23.32
56600;BME280;51832;48.152;11.530;2023-04-22T13:19:03;94809.34;;;27.21;23.22
56600;BME280;51832;48.152;11.530;2023-04-22T13:24:04;94822.25;;;28.59;21.80
56600;BME280;51832;48.152;11.530;2023-04-22T13:29:04;94811.47;;;27.84;22.82
56600;BME280;51832;48.152;11.530;2023-04-22T13:34:10;94802.28;;;28.32;22.23
56600;BME280;51832;48.152;11.530;2023-04-22T13:39:11;94801.94;;;27.58;22.74
56600;BME280;51832;48.152;11.530;2023-04-22T13:44:12;94792.59;;;27.56;23.08
56600;BME280;51832;48.152;11.530;2023-04-22T13:49:13;94782.84;;;26.87;23.31
56600;BME280;51832;48.152;11.530;2023-04-22T13:54:13;94789.16;;;28.03;22.44
56600;BME280;51832;48.152;11.530;2023-04-22T13:59:14;94779.50;;;28.33;21.98
56600;BME280;51832;48.152;11.530;2023-04-22T14:04:14;94777.41;;;28.11;21.91
56600;BME280;51832;48.152;11.530;2023-04-22T14:09:15;94772.25;;;28.53;21.44
56600;BME280;51832;48.152;11.530;2023-04-22T14:14:17;94777.41;;;28.42;21.68
56600;BME280;51832;48.152;11.530;2023-04-22T14:19:17;94768.59;;;29.34;20.50
56600;BME280;51832;48.152;11.530;2023-04-22T14:24:17;94763.00;;;30.31;19.64
56600;BME280;51832;48.152;11.530;2023-04-22T14:29:18;94768.81;;;29.64;20.21
56600;BME280;51832;48.152;11.530;2023-04-22T14:34:19;94766.22;;;29.72;19.82
56600;BME280;51832;48.152;11.530;2023-04-22T14:39:19;94762.38;;;29.53;20.22
56600;BME280;51832;48.152;11.530;2023-04-22T14:44:20;94757.03;;;28.80;21.54
56600;BME280;51832;48.152;11.530;2023-04-22T14:49:21;94756.66;;;28.81;21.97
56600;BME280;51832;48.152;11.530;2023-04-22T14:54:21;94762.13;;;30.00;20.63
56600;BME280;51832;48.152;11.530;2023-04-22T14:59:22;94760.03;;;29.71;20.98
56600;BME280;51832;48.152;11.530;2023-04-22T15:04:23;94755.03;;;29.96;21.06
56600;BME280;51832;48.152;11.530;2023-04-22T15:09:23;94758.53;;;30.42;20.18
56600;BME280;51832;48.152;11.530;2023-04-22T15:14:23;94758.22;;;29.79;21.10
56600;BME280;51832;48.152;11.530;2023-04-22T15:19:24;94757.91;;;29.42;21.54
56600;BME280;51832;48.152;11.530;2023-04-22T15:24:24;94759.69;;;29.53;21.31
56600;BME280;51832;48.152;11.530;2023-04-22T15:29:25;94753.06;;;28.26;22.59
56600;BME280;51832;48.152;11.530;2023-04-22T15:34:27;94751.38;;;28.88;22.06
56600;BME280;51832;48.152;11.530;2023-04-22T15:39:27;94749.97;;;29.72;21.23
56600;BME280;51832;48.152;11.530;2023-04-22T15:44:28;94750.50;;;29.39;21.43
56600;BME280;51832;48.152;11.530;2023-04-22T15:49:29;94750.66;;;30.11;20.82
56600;BME280;51832;48.152;11.530;2023-04-22T15:54:30;94757.22;;;30.55;20.31
56600;BME280;51832;48.152;11.530;2023-04-22T15:59:30;94756.06;;;29.88;20.98
56600;BME280;51832;48.152;11.530;2023-04-22T16:04:30;94760.19;;;29.59;21.00
56600;BME280;51832;48.152;11.530;2023-04-22T16:09:31;94759.69;;;29.53;20.71
56600;BME280;51832;48.152;11.530;2023-04-22T16:14:31;94765.63;;;29.40;21.13
56600;BME280;51832;48.152;11.530;2023-04-22T16:19:32;94768.47;;;29.47;21.18
56600;BME280;51832;48.152;11.530;2023-04-22T16:24:32;94767.97;;;29.22;21.41
56600;BME280;51832;48.152;11.530;2023-04-22T16:29:33;94765.59;;;29.78;21.15
56600;BME280;51832;48.152;11.530;2023-04-22T16:34:33;94771.28;;;29.15;21.54
56600;BME280;51832;48.152;11.530;2023-04-22T16:39:34;94752.75;;;28.63;22.52
56600;BME280;51832;48.152;11.530;2023-04-22T16:44:35;94750.72;;;29.49;21.16
56600;BME280;51832;48.152;11.530;2023-04-22T16:49:35;94751.72;;;31.38;19.25
56600;BME280;51832;48.152;11.530;2023-04-22T16:54:36;94756.31;;;30.48;20.09
56600;BME280;51832;48.152;11.530;2023-04-22T16:59:37;94748.13;;;29.18;21.56
56600;BME280;51832;48.152;11.530;2023-04-22T17:04:37;94756.72;;;29.81;21.19
56600;BME280;51832;48.152;11.530;2023-04-22T17:09:38;94744.31;;;29.38;21.48
56600;BME280;51832;48.152;11.530;2023-04-22T17:14:38;94752.06;;;29.20;21.73
56600;BME280;51832;48.152;11.530;2023-04-22T17:19:38;94751.13;;;28.78;21.91
56600;BME280;51832;48.152;11.530;2023-04-22T17:24:39;94753.94;;;27.99;23.01
56600;BME280;51832;48.152;11.530;2023-04-22T17:29:40;94749.41;;;27.87;23.34
56600;BME280;51832;48.152;11.530;2023-04-22T17:34:40;94756.00;;;27.74;23.43
56600;BME280;51832;48.152;11.530;2023-04-22T17:39:40;94766.09;;;27.62;23.70
56600;BME280;51832;48.152;11.530;2023-04-22T17:44:41;94768.09;;;27.37;24.17
56600;BME280;51832;48.152;11.530;2023-04-22T17:49:41;94759.22;;;26.96;24.49
56600;BME280;51832;48.152;11.530;2023-04-22T17:54:42;94768.56;;;26.86;25.06
56600;BME280;51832;48.152;11.530;2023-04-22T17:59:42;94771.59;;;26.97;24.82
56600;BME280;51832;48.152;11.530;2023-04-22T18:04:43;94772.53;;;26.77;25.14
56600;BME280;51832;48.152;11.530;2023-04-22T18:09:44;94779.66;;;26.33;25.69
56600;BME280;51832;48.152;11.530;2023-04-22T18:14:44;94774.38;;;26.36;25.51
56600;BME280;51832;48.152;11.530;2023-04-22T18:19:45;94780.78;;;26.44;25.49
56600;BME280;51832;48.152;11.530;2023-04-22T18:24:47;94782.19;;;26.17;26.17
56600;BME280;51832;48.152;11.530;2023-04-22T18:29:48;94783.31;;;26.04;26.59
56600;BME280;51832;48.152;11.530;2023-04-22T18:34:50;94788.03;;;26.07;26.75
56600;BME280;51832;48.152;11.530;2023-04-22T18:39:50;94793.19;;;26.24;26.03
56600;BME280;51832;48.152;11.530;2023-04-22T18:44:51;94800.22;;;26.62;25.85
56600;BME280;51832;48.152;11.530;2023-04-22T18:49:51;94798.75;;;26.52;26.03
56600;BME280;51832;48.152;11.530;2023-04-22T18:54:52;94803.47;;;26.55;26.29
56600;BME280;51832;48.152;11.530;2023-04-22T18:59:52;94807.28;;;26.54;26.28
56600;BME280;51832;48.152;11.530;2023-04-22T19:04:53;94816.28;;;26.34;26.50
56600;BME280;51832;48.152;11.530;2023-04-22T19:09:54;94822.63;;;26.05;26.90
56600;BME280;51832;48.152;11.530;2023-04-22T19:14:54;94823.78;;;25.71;26.87
56600;BME280;51832;48.152;11.530;2023-04-22T19:19:58;94830.13;;;25.87;27.29
56600;BME280;51832;48.152;11.530;2023-04-22T19:24:59;94838.03;;;26.04;27.33
56600;BME280;51832;48.152;11.530;2023-04-22T19:30:00;94845.44;;;25.95;27.28
56600;BME280;51832;48.152;11.530;2023-04-22T19:35:00;94853.97;;;25.64;27.15
56600;BME280;51832;48.152;11.530;2023-04-22T19:40:01;94861.75;;;23.63;31.31
56600;BME280;51832;48.152;11.530;2023-04-22T19:45:01;94861.03;;;23.92;31.30
56600;BME280;51832;48.152;11.530;2023-04-22T19:50:05;94866.06;;;24.11;30.65
56600;BME280;51832;48.152;11.530;2023-04-22T19:55:06;94859.75;;;23.98;31.01
56600;BME280;51832;48.152;11.530;2023-04-22T20:00:11;94860.47;;;23.52;31.70
56600;BME280;51832;48.152;11.530;2023-04-22T20:05:12;94876.25;;;22.54;34.79
56600;BME280;51832;48.152;11.530;2023-04-22T20:10:13;94884.47;;;21.51;36.76
56600;BME280;51832;48.152;11.530;2023-04-22T20:15:14;94890.94;;;21.72;36.93
56600;BME280;51832;48.152;11.530;2023-04-22T20:20:15;94882.66;;;21.82;36.26
56600;BME280;51832;48.152;11.530;2023-04-22T20:25:16;94895.09;;;21.20;38.16
56600;BME280;51832;48.152;11.530;2023-04-22T20:30:17;94887.47;;;21.13;38.77
56600;BME280;51832;48.152;11.530;2023-04-22T20:35:18;94887.16;;;21.28;38.77
56600;BME280;51832;48.152;11.530;2023-04-22T20:40:19;94879.53;;;20.58;40.10
56600;BME280;51832;48.152;11.530;2023-04-22T20:45:21;94889.22;;;20.41;40.54
56600;BME280;51832;48.152;11.530;2023-04-22T20:50:21;94880.31;;;20.45;40.63
56600;BME280;51832;48.152;11.530;2023-04-22T20:55:21;94879.06;;;20.10;41.60
56600;BME280;51832;48.152;11.530;2023-04-22T21:00:22;94871.97;;;20.88;40.10
56600;BME280;51832;48.152;11.530;2023-04-22T21:05:23;94864.25;;;20.86;40.34
56600;BME280;51832;48.152;11.530;2023-04-22T21:10:24;94862.53;;;21.04;40.12
56600;BME280;51832;48.152;11.530;2023-04-22T21:15:25;94881.47;;;20.67;41.29
56600;BME280;51832;48.152;11.530;2023-04-22T21:20:27;94872.56;;;20.71;41.21
56600;BME280;51832;48.152;11.530;2023-04-22T21:25:30;94883.66;;;20.65;41.65
56600;BME280;51832;48.152;11.530;2023-04-22T21:30:31;94892.78;;;20.64;41.83
56600;BME280;51832;48.152;11.530;2023-04-22T21:35:32;94894.63;;;20.22;42.73
56600;BME280;51832;48.152;11.530;2023-04-22T21:40:33;94906.47;;;20.02;43.41
56600;BME280;51832;48.152;11.530;2023-04-22T21:45:33;94906.06;;;19.95;43.59
56600;BME280;51832;48.152;11.530;2023-04-22T21:50:34;94907.16;;;19.94;43.67
56600;BME280;51832;48.152;11.530;2023-04-22T21:55:34;94910.56;;;20.27;43.31
56600;BME280;51832;48.152;11.530;2023-04-22T22:00:34;94909.69;;;20.32;43.06
56600;BME280;51832;48.152;11.530;2023-04-22T22:05:37;94902.97;;;20.89;41.96
56600;BME280;51832;48.152;11.530;2023-04-22T22:10:37;94898.09;;;20.91;41.43
56600;BME280;51832;48.152;11.530;2023-04-22T22:15:38;94906.94;;;20.64;42.21
56600;BME280;51832;48.152;11.530;2023-04-22T22:20:38;94905.13;;;20.18;43.47
56600;BME280;51832;48.152;11.530;2023-04-22T22:25:39;94914.19;;;20.50;42.83
56600;BME280;51832;48.152;11.530;2023-04-22T22:30:39;94909.44;;;20.47;43.11
56600;BME280;51832;48.152;11.530;2023-04-22T22:35:40;94906.41;;;20.35;43.52
56600;BME280;51832;48.152;11.530;2023-04-22T22:40:40;94916.53;;;20.65;42.80
56600;BME280;51832;48.152;11.530;2023-04-22T22:45:41;94917.53;;;20.55;43.22
56600;BME280;51832;48.152;11.530;2023-04-22T22:50:42;94914.75;;;20.74;42.70
56600;BME280;51832;48.152;11.530;2023-04-22T22:55:42;94926.13;;;20.66;42.74
56600;BME280;51832;48.152;11.530;2023-04-22T23:00:43;94915.28;;;20.63;42.58
56600;BME280;51832;48.152;11.530;2023-04-22T23:05:43;94919.69;;;20.67;42.64
56600;BME280;51832;48.152;11.530;2023-04-22T23:10:44;94915.34;;;20.85;41.89
56600;BME280;51832;48.152;11.530;2023-04-22T23:15:44;94918.31;;;20.56;42.54
56600;BME280;51832;48.152;11.530;2023-04-22T23:20:45;94925.34;;;20.38;43.19
56600;BME280;51832;48.152;11.530;2023-04-22T23:25:46;94921.19;;;20.00;44.20
56600;BME280;51832;48.152;11.530;2023-04-22T23:30:49;94925.56;;;20.09;43.71
56600;BME280;51832;48.152;11.530;2023-04-22T23:35:53;94918.97;;;20.20;43.31
56600;BME280;51832;48.152;11.530;2023-04-22T23:40:58;94920.56;;;20.35;43.14
56600;BME280;51832;48.152;11.530;2023-04-22T23:45:58;94916.31;;;20.34;43.28
56600;BME280;51832;48.152;11.530;2023-04-22T23:50:58;94913.91;;;20.19;43.65
56600;BME280;51832;48.152;11.530;2023-04-22T23:55:59;94922.66;;;20.38;43.39
